Faribault, MN

8:30 AM CST on February 13, 2016 (GMT -0600)
Faribault Municipal

Weather History for KFBL - July, 2013

Change the Weather History Date:

Monday, July 1, 2013

  Actual Average Record
Temperature  
Mean Temperature 68 °F -  
Max Temperature 82 °F 81 °F 96 °F (2011)
Min Temperature 53 °F 57 °F 45 °F (1969)
Cooling Degree Days 2    
Growing Degree Days 18 (Base 50)    
Moisture  
Dew Point 57 °F    
Average Humidity 70    
Maximum Humidity 100    
Minimum Humidity 39    
Precipitation  
Precipitation 0.00 in - - ()
Sea Level Pressure  
Sea Level Pressure 30.17 in    
Wind  
Wind Speed 2 mph (NNE)    
Max Wind Speed 9 mph    
Max Gust Speed -    
Visibility 10 miles    
Events Thunderstorm    
Averages and records for this station are not official NWS values.
T = Trace of Precipitation, MM = Missing Value Source: NWS Daily Summary

Daily Weather History Graph

Daily Weather History Graph

Search for Another Location

Airport or City:

Trip Planner

Search our weather history database for the weather conditions in past years. The results will help you decide how hot, cold, wet, or windy it might be!

Date:

Astronomy

Jul. 01, 2013 Rise Set
Actual Time 5:33 AM CDT 9:00 PM CDT
Civil Twilight 4:56 AM CDT 9:37 PM CDT
Nautical Twilight 4:08 AM CDT 10:25 PM CDT
Astronomical Twilight 3:07 AM CDT 11:25 PM CDT
Moon 1:12 AM CDT (7/1) 3:09 PM CDT (7/1)
Length of Visible Light 16h 40m
Length of Day
15h 27m
Waning Crescent, 35% of the Moon is Illuminated
Jul 1
Waning Crescent
Jul 8
New
Jul 15
First Quarter
Jul 22
Full
Jul 29
Last Quarter

Hourly Weather History & Observations

Time (CDT) Temp. Heat Index Dew Point Humidity Pressure Visibility Wind Dir Wind Speed Gust Speed Precip Events Conditions
12:01 AM 59.0 °F - 59.0 °F 100% 30.13 in 10.0 mi Calm Calm - N/A   Clear
12:21 AM 57.2 °F - 57.2 °F 100% 30.13 in 10.0 mi Calm Calm - N/A   Clear
12:41 AM 57.2 °F - 57.2 °F 100% 30.13 in 10.0 mi Calm Calm - N/A   Clear
1:01 AM 57.2 °F - 57.2 °F 100% 30.14 in 10.0 mi Calm Calm - N/A   Clear
1:21 AM 57.2 °F - 57.2 °F 100% 30.14 in 5.0 mi Calm Calm - N/A   Clear
1:41 AM 57.2 °F - 57.2 °F 100% 30.14 in 10.0 mi Calm Calm - N/A   Clear
2:01 AM 59.0 °F - 57.2 °F 94% 30.14 in 10.0 mi NW 2.3 mph - N/A   Clear
2:21 AM 59.0 °F - 55.4 °F 88% 30.14 in 10.0 mi Calm Calm - N/A   Clear
2:41 AM 57.2 °F - 55.4 °F 94% 30.14 in 10.0 mi Calm Calm - N/A   Clear
3:01 AM 57.2 °F - 55.4 °F 94% 30.14 in 10.0 mi Calm Calm - N/A   Clear
3:41 AM 55.4 °F - 55.4 °F 100% 30.14 in 10.0 mi Calm Calm - N/A   Clear
4:01 AM 55.4 °F - 55.4 °F 100% 30.14 in 10.0 mi Calm Calm - N/A   Clear
4:21 AM 55.4 °F - 55.4 °F 100% 30.15 in 10.0 mi Calm Calm - N/A   Clear
4:41 AM 55.4 °F - 55.4 °F 100% 30.15 in 10.0 mi North 2.3 mph - N/A   Clear
5:01 AM 55.4 °F - 55.4 °F 100% 30.15 in 10.0 mi Calm Calm - N/A   Clear
5:21 AM 55.4 °F - 55.4 °F 100% 30.16 in 10.0 mi Calm Calm - N/A   Clear
5:41 AM 53.6 °F - 53.6 °F 100% 30.16 in 10.0 mi Calm Calm - N/A   Clear
6:01 AM 53.6 °F - 53.6 °F 100% 30.17 in 5.0 mi Calm Calm - N/A   Clear
6:21 AM 55.4 °F - 55.4 °F 100% 30.18 in 7.0 mi Calm Calm - N/A   Clear
6:41 AM 55.4 °F - 55.4 °F 100% 30.18 in 10.0 mi Calm Calm - N/A   Clear
7:01 AM 57.2 °F - 57.2 °F 100% 30.18 in 10.0 mi Calm Calm - N/A   Clear
7:21 AM 62.6 °F - 59.0 °F 88% 30.18 in 10.0 mi Calm Calm - N/A   Clear
7:41 AM 64.4 °F - 59.0 °F 83% 30.19 in 10.0 mi NNE 1.2 mph - N/A   Clear
8:01 AM 64.4 °F - 59.0 °F 83% 30.19 in 10.0 mi Calm Calm - N/A   Clear
8:21 AM 66.2 °F - 59.0 °F 78% 30.19 in 10.0 mi NNE 2.3 mph - N/A   Clear
8:41 AM 68.0 °F - 57.2 °F 68% 30.20 in 10.0 mi NNE 3.5 mph - N/A   Scattered Clouds
8:52 AM 69.8 °F - 59.0 °F 68% 30.20 in 10.0 mi North 3.5 mph - N/A   Clear
8:54 AM 69.8 °F - 59.0 °F 68% 30.20 in 10.0 mi North 3.5 mph - N/A   Clear
9:14 AM 69.8 °F - 59.0 °F 68% 30.20 in 10.0 mi NNE 3.5 mph - N/A   Clear
9:34 AM 71.6 °F - 60.8 °F 69% 30.20 in 10.0 mi Calm Calm - N/A   Clear
9:54 AM 73.4 °F - 57.2 °F 57% 30.20 in 10.0 mi Calm Calm - N/A   Clear
10:14 AM 73.4 °F - 55.4 °F 53% 30.19 in 10.0 mi Calm Calm - N/A   Clear
10:34 AM 75.2 °F - 55.4 °F 50% 30.20 in 10.0 mi Calm Calm - N/A   Clear
10:54 AM 75.2 °F - 57.2 °F 53% 30.20 in 10.0 mi NE 4.6 mph - N/A   Clear
11:14 AM 77.0 °F - 55.4 °F 47% 30.20 in 10.0 mi ENE 5.8 mph - N/A   Clear
11:34 AM 77.0 °F - 55.4 °F 47% 30.20 in 10.0 mi NNE 3.5 mph - N/A   Clear
11:54 AM 78.8 °F - 55.4 °F 44% 30.20 in 10.0 mi North 4.6 mph - N/A   Clear
12:14 PM 78.8 °F - 55.4 °F 44% 30.20 in 10.0 mi Calm Calm - N/A   Clear
12:33 PM 78.8 °F - 55.4 °F 44% 30.20 in 10.0 mi North 4.6 mph - N/A   Clear
12:54 PM 80.6 °F 80.3 °F 53.6 °F 39% 30.19 in 10.0 mi ENE 6.9 mph - N/A   Clear
1:14 PM 80.6 °F 80.5 °F 55.4 °F 42% 30.19 in 7.0 mi NNE 4.6 mph - N/A   Clear
1:34 PM 80.6 °F 80.5 °F 55.4 °F 42% 30.18 in 10.0 mi NE 4.6 mph - N/A   Clear
1:54 PM 80.6 °F 80.8 °F 57.2 °F 45% 30.18 in 10.0 mi NE 8.1 mph - N/A   Clear
2:14 PM 80.6 °F 80.5 °F 55.4 °F 42% 30.18 in 7.0 mi ENE 3.5 mph - N/A   Scattered Clouds
2:34 PM 80.6 °F 80.8 °F 57.2 °F 45% 30.18 in 10.0 mi NNE 4.6 mph - N/A   Clear
2:54 PM 82.4 °F 82.0 °F 57.2 °F 42% 30.17 in 10.0 mi North 8.1 mph - N/A   Scattered Clouds
3:14 PM 82.4 °F 82.0 °F 57.2 °F 42% 30.17 in 10.0 mi NNE 9.2 mph - N/A   Clear
3:34 PM 82.4 °F 82.0 °F 57.2 °F 42% 30.16 in 10.0 mi NNE 3.5 mph - N/A   Clear
3:54 PM 80.6 °F 80.5 °F 55.4 °F 42% 30.16 in 10.0 mi NNE 6.9 mph - N/A   Clear
4:14 PM 80.6 °F 80.5 °F 55.4 °F 42% 30.16 in 10.0 mi NE 6.9 mph - N/A   Scattered Clouds
4:34 PM 80.6 °F 80.8 °F 57.2 °F 45% 30.16 in 10.0 mi NNE 4.6 mph - N/A   Scattered Clouds
4:54 PM 80.6 °F 80.8 °F 57.2 °F 45% 30.16 in 10.0 mi NNE 3.5 mph - N/A   Scattered Clouds
5:14 PM 80.6 °F 80.8 °F 57.2 °F 45% 30.16 in 10.0 mi ENE 3.5 mph - N/A   Scattered Clouds
5:34 PM 80.6 °F 80.8 °F 57.2 °F 45% 30.15 in 10.0 mi NNE 4.6 mph - N/A   Scattered Clouds
5:54 PM 80.6 °F 80.8 °F 57.2 °F 45% 30.15 in 10.0 mi ENE 6.9 mph - N/A   Scattered Clouds
6:14 PM 80.6 °F 80.5 °F 55.4 °F 42% 30.15 in 10.0 mi NNE 8.1 mph - N/A   Clear
6:34 PM 78.8 °F - 57.2 °F 47% 30.15 in 10.0 mi NNE 3.5 mph - N/A   Clear
6:54 PM 78.8 °F - 57.2 °F 47% 30.15 in 10.0 mi NNE 6.9 mph - N/A   Clear
7:13 PM 77.0 °F - 57.2 °F 50% 30.15 in 10.0 mi NNE 6.9 mph - N/A   Clear
7:34 PM 75.2 °F - 57.2 °F 53% 30.15 in 10.0 mi North 3.5 mph - N/A   Clear
7:54 PM 75.2 °F - 57.2 °F 53% 30.15 in 10.0 mi NNE 3.5 mph - N/A   Clear
8:14 PM 75.2 °F - 60.8 °F 61% 30.16 in 10.0 mi Calm Calm - N/A   Clear
8:34 PM 73.4 °F - 60.8 °F 65% 30.16 in 10.0 mi Calm Calm - N/A   Clear
8:54 PM 73.4 °F - 59.0 °F 61% 30.16 in 10.0 mi Calm Calm - N/A   Clear
9:14 PM 71.6 °F - 59.0 °F 64% 30.16 in 10.0 mi Calm Calm - N/A   Clear
9:34 PM 66.2 °F - 62.6 °F 88% 30.16 in 10.0 mi Calm Calm - N/A   Clear
9:54 PM 64.4 °F - 62.6 °F 94% 30.16 in 10.0 mi Calm Calm - N/A   Clear
10:14 PM 64.4 °F - 62.6 °F 94% 30.16 in 10.0 mi Calm Calm - N/A   Clear
10:34 PM 64.4 °F - 62.6 °F 94% 30.16 in 10.0 mi Calm Calm - N/A   Clear
10:54 PM 64.4 °F - 60.8 °F 88% 30.16 in 10.0 mi Calm Calm - N/A   Clear
11:14 PM 62.6 °F - 60.8 °F 94% 30.16 in 10.0 mi Calm Calm - N/A   Clear
11:34 PM 66.2 °F - 59.0 °F 78% 30.16 in 10.0 mi North 3.5 mph - N/A Thunderstorm Clear
11:54 PM 66.2 °F - 59.0 °F 78% 30.16 in 10.0 mi Calm Calm - N/A   Clear